createdAt,value
2022-12-28T00:00:11.420Z,20.09
2022-12-28T00:02:42.185Z,20.10
2022-12-28T00:05:11.707Z,20.12
2022-12-28T00:07:43.857Z,20.11
2022-12-28T00:10:15.153Z,20.10
2022-12-28T00:12:44.655Z,20.09
2022-12-28T00:15:14.157Z,20.11
2022-12-28T00:17:45.928Z,20.12
2022-12-28T00:20:15.832Z,20.14
2022-12-28T00:22:45.513Z,20.14
2022-12-28T00:25:15.467Z,20.15
2022-12-28T00:27:47.649Z,20.13
2022-12-28T00:30:16.952Z,20.12
2022-12-28T00:32:46.385Z,20.13
2022-12-28T00:35:17.805Z,20.11
2022-12-28T00:37:47.205Z,20.10
2022-12-28T00:40:22.063Z,20.09
2022-12-28T00:42:47.397Z,20.10
2022-12-28T00:45:17.078Z,20.10
2022-12-28T00:47:46.576Z,20.10
2022-12-28T00:50:16.018Z,20.07
2022-12-28T00:52:45.241Z,20.06
2022-12-28T00:55:14.985Z,20.06
2022-12-28T00:57:44.261Z,20.04
2022-12-28T01:00:16.660Z,20.04
2022-12-28T01:02:47.445Z,20.02
2022-12-28T01:05:17.267Z,20.02
2022-12-28T01:10:57.180Z,19.95
2022-12-28T01:13:26.649Z,19.95
2022-12-28T01:15:56.100Z,19.90
2022-12-28T01:18:27.011Z,19.90
2022-12-28T01:20:56.297Z,19.92
2022-12-28T01:23:26.318Z,19.92
2022-12-28T01:25:55.773Z,19.90
2022-12-28T01:31:11.990Z,19.79
2022-12-28T01:33:41.356Z,19.77
2022-12-28T01:36:11.049Z,19.83
2022-12-28T01:38:42.001Z,19.82
2022-12-28T01:41:11.939Z,19.83
2022-12-28T01:43:42.635Z,19.77
2022-12-28T01:46:12.286Z,19.75
2022-12-28T01:48:43.152Z,19.72
2022-12-28T01:51:12.510Z,19.76
2022-12-28T01:53:42.391Z,19.79
2022-12-28T01:56:11.831Z,19.72
2022-12-28T01:58:41.294Z,19.68
2022-12-28T02:01:13.454Z,19.74
2022-12-28T02:03:43.227Z,19.79
2022-12-28T02:06:13.497Z,19.79
2022-12-28T02:08:45.009Z,19.82
2022-12-28T02:11:14.933Z,19.82
2022-12-28T02:13:45.506Z,19.86
2022-12-28T02:16:14.865Z,19.86
2022-12-28T02:18:45.015Z,19.88
2022-12-28T02:21:34.642Z,19.88
2022-12-28T02:24:21.682Z,19.91
2022-12-28T02:27:01.577Z,19.92
2022-12-28T02:29:35.721Z,19.95
2022-12-28T02:32:06.807Z,19.94
2022-12-28T02:34:38.175Z,19.96
2022-12-28T02:37:21.603Z,19.98
2022-12-28T02:39:56.194Z,19.98
2022-12-28T02:42:27.862Z,20.02
2022-12-28T02:45:14.588Z,20.01
2022-12-28T02:48:02.914Z,20.02
2022-12-28T02:50:33.938Z,20.03
2022-12-28T02:53:19.889Z,20.04
2022-12-28T02:56:11.911Z,20.04
2022-12-28T02:58:48.787Z,20.09
2022-12-28T03:01:39.659Z,20.12
2022-12-28T03:04:21.725Z,20.10
2022-12-28T03:07:24.923Z,20.11
2022-12-28T03:10:02.410Z,20.14
2022-12-28T03:12:36.467Z,20.12
2022-12-28T03:15:10.237Z,20.11
2022-12-28T03:17:57.914Z,20.08
2022-12-28T03:20:45.509Z,20.11
2022-12-28T03:23:33.492Z,20.07
2022-12-28T03:26:20.787Z,20.05
2022-12-28T03:29:07.816Z,20.04
2022-12-28T03:31:38.012Z,20.00
2022-12-28T03:34:10.851Z,20.02
2022-12-28T03:36:41.520Z,20.02
2022-12-28T03:39:18.534Z,20.01
2022-12-28T03:41:49.397Z,20.01
2022-12-28T03:44:20.493Z,19.95
2022-12-28T03:46:51.767Z,19.94
2022-12-28T03:49:21.183Z,19.91
2022-12-28T03:51:50.656Z,19.91
2022-12-28T03:54:20.142Z,19.95
2022-12-28T03:56:49.947Z,19.93
2022-12-28T03:59:19.384Z,19.93
2022-12-28T04:01:49.166Z,19.91
2022-12-28T04:04:18.670Z,19.88
2022-12-28T04:06:47.951Z,19.79
2022-12-28T04:09:18.819Z,19.83
2022-12-28T04:11:48.306Z,19.86
2022-12-28T04:14:17.937Z,19.89
2022-12-28T04:16:49.165Z,19.92
2022-12-28T04:19:21.413Z,19.92
2022-12-28T04:21:50.957Z,19.95
2022-12-28T04:24:20.356Z,19.95
2022-12-28T04:26:49.984Z,19.95
2022-12-28T04:29:20.097Z,19.97
2022-12-28T04:31:49.562Z,20.01
2022-12-28T04:34:19.133Z,20.02
2022-12-28T04:36:48.738Z,20.03
2022-12-28T04:39:18.390Z,20.04
2022-12-28T04:41:48.719Z,20.04
2022-12-28T04:44:18.486Z,20.06
2022-12-28T04:46:50.580Z,20.09
2022-12-28T04:49:19.196Z,20.08
2022-12-28T04:51:48.546Z,20.10
2022-12-28T04:54:18.051Z,20.16
2022-12-28T04:56:47.549Z,20.19
2022-12-28T04:59:17.431Z,20.19
2022-12-28T05:01:49.755Z,20.21
2022-12-28T05:04:20.068Z,20.20
2022-12-28T05:06:49.512Z,20.22
2022-12-28T05:09:20.524Z,20.20
2022-12-28T05:11:53.594Z,20.19
2022-12-28T05:14:24.487Z,20.20
2022-12-28T05:16:54.052Z,20.18
2022-12-28T05:19:23.991Z,20.15
2022-12-28T05:21:53.825Z,20.13
2022-12-28T05:24:23.272Z,20.11
2022-12-28T05:26:55.809Z,20.11
2022-12-28T05:29:25.006Z,20.12
2022-12-28T05:31:54.432Z,20.11
2022-12-28T05:34:24.032Z,20.12
2022-12-28T05:36:53.615Z,20.08
2022-12-28T05:39:23.393Z,20.03
2022-12-28T05:41:55.769Z,20.04
2022-12-28T05:44:25.086Z,20.05
2022-12-28T05:46:57.237Z,20.06
2022-12-28T05:49:27.072Z,20.08
2022-12-28T05:51:56.438Z,20.03
2022-12-28T05:54:25.986Z,20.02
2022-12-28T05:56:55.856Z,20.00
2022-12-28T05:59:25.317Z,19.99
2022-12-28T06:01:54.955Z,20.00
2022-12-28T06:04:24.798Z,20.04
2022-12-28T06:06:55.439Z,20.03
2022-12-28T06:09:26.206Z,19.99
2022-12-28T06:11:55.784Z,19.99
2022-12-28T06:14:28.320Z,19.97
2022-12-28T06:16:57.444Z,19.98
2022-12-28T06:19:28.264Z,20.03
2022-12-28T06:21:57.689Z,20.02
2022-12-28T06:24:27.124Z,19.89
2022-12-28T06:26:56.562Z,19.87
2022-12-28T06:29:26.057Z,19.91
2022-12-28T06:31:55.986Z,19.96
2022-12-28T06:34:25.292Z,19.97
2022-12-28T06:36:54.741Z,20.00
2022-12-28T06:39:24.282Z,20.05
2022-12-28T06:41:53.804Z,20.07
2022-12-28T06:44:23.417Z,20.12
2022-12-28T06:46:53.302Z,20.11
2022-12-28T06:49:24.854Z,20.12
2022-12-28T06:51:55.996Z,20.14
2022-12-28T06:54:25.581Z,20.23
2022-12-28T06:56:56.562Z,20.24
2022-12-28T06:59:26.170Z,20.25
2022-12-28T07:01:57.944Z,20.24
2022-12-28T07:04:27.891Z,20.26
2022-12-28T07:06:57.299Z,20.26
2022-12-28T07:09:26.555Z,20.26
2022-12-28T07:11:56.005Z,20.27
2022-12-28T07:14:25.332Z,20.28
2022-12-28T07:16:54.651Z,20.30
2022-12-28T07:19:24.506Z,20.39
2022-12-28T07:21:53.977Z,20.44
2022-12-28T07:24:23.514Z,20.42
2022-12-28T07:26:55.798Z,20.41
2022-12-28T07:29:25.268Z,20.39
2022-12-28T07:31:54.847Z,20.40
2022-12-28T07:34:24.661Z,20.38
2022-12-28T07:36:53.858Z,20.39
2022-12-28T07:39:25.787Z,20.38
2022-12-28T07:41:55.489Z,20.38
2022-12-28T07:44:29.398Z,20.39
2022-12-28T07:46:55.941Z,20.39
2022-12-28T07:49:26.196Z,20.40
2022-12-28T07:51:55.641Z,20.39
2022-12-28T07:54:24.990Z,20.41
2022-12-28T07:56:54.692Z,20.40
2022-12-28T07:59:30.629Z,20.41
2022-12-28T08:01:55.178Z,20.42
2022-12-28T08:04:25.331Z,20.40
2022-12-28T08:06:55.320Z,20.42
2022-12-28T08:09:24.695Z,20.42
2022-12-28T08:11:54.742Z,20.41
2022-12-28T08:14:24.387Z,20.42
2022-12-28T08:16:53.815Z,20.43
2022-12-28T08:19:23.206Z,20.44
2022-12-28T08:21:52.952Z,20.43
2022-12-28T08:24:24.910Z,20.44
2022-12-28T08:26:53.212Z,20.42
2022-12-28T08:29:24.760Z,20.41
2022-12-28T08:31:56.319Z,20.41
2022-12-28T08:34:27.494Z,20.43
2022-12-28T08:36:57.435Z,20.42
2022-12-28T08:39:26.916Z,20.42
2022-12-28T08:41:56.546Z,20.42
2022-12-28T08:44:25.820Z,20.41
2022-12-28T08:46:56.392Z,20.42
2022-12-28T08:49:26.362Z,20.42
2022-12-28T08:51:55.992Z,20.41
2022-12-28T08:54:25.268Z,20.40
2022-12-28T08:56:56.669Z,20.41
2022-12-28T08:59:26.093Z,20.41
2022-12-28T09:01:56.936Z,20.40
2022-12-28T09:04:26.541Z,20.40
2022-12-28T09:06:55.781Z,20.39
2022-12-28T09:09:25.405Z,20.39
2022-12-28T09:11:54.831Z,20.35
2022-12-28T09:14:24.723Z,20.34
2022-12-28T09:16:55.573Z,20.31
2022-12-28T09:19:28.154Z,20.29
2022-12-28T09:21:57.511Z,20.27
2022-12-28T09:24:27.138Z,20.27
2022-12-28T09:26:58.003Z,20.25
2022-12-28T09:29:27.290Z,20.24
2022-12-28T09:32:00.942Z,20.24
2022-12-28T09:34:38.331Z,20.19
2022-12-28T09:37:01.183Z,20.16
2022-12-28T09:39:30.854Z,20.19
2022-12-28T09:42:01.984Z,20.16
2022-12-28T09:44:39.008Z,20.14
2022-12-28T09:47:17.517Z,20.15
2022-12-28T09:49:54.469Z,20.12
2022-12-28T09:52:31.469Z,20.10
2022-12-28T09:55:02.279Z,20.08
2022-12-28T09:57:34.332Z,20.08
2022-12-28T10:00:03.295Z,20.08
2022-12-28T10:02:33.532Z,20.09
2022-12-28T10:05:03.141Z,20.08
2022-12-28T10:07:33.093Z,20.05
2022-12-28T10:10:06.276Z,20.02
2022-12-28T10:12:36.193Z,20.00
2022-12-28T10:15:06.940Z,20.01
2022-12-28T10:17:37.216Z,20.04
2022-12-28T10:20:09.302Z,20.07
2022-12-28T10:22:41.512Z,20.06
2022-12-28T10:25:15.258Z,20.04
2022-12-28T10:27:45.929Z,20.00
2022-12-28T10:30:20.132Z,20.00
2022-12-28T10:32:56.744Z,19.98
2022-12-28T10:35:24.737Z,19.99
2022-12-28T10:37:54.214Z,20.02
2022-12-28T10:40:25.041Z,20.04
2022-12-28T10:42:56.364Z,20.01
2022-12-28T10:45:26.925Z,20.00
2022-12-28T10:47:56.771Z,19.98
2022-12-28T10:50:45.912Z,19.98
2022-12-28T10:53:29.026Z,19.98
2022-12-28T10:56:15.036Z,20.02
2022-12-28T10:58:46.085Z,20.00
2022-12-28T11:01:17.816Z,19.98
2022-12-28T11:04:00.852Z,19.99
2022-12-28T11:06:31.556Z,19.97
2022-12-28T11:09:08.029Z,19.96
2022-12-28T11:11:37.839Z,20.01
2022-12-28T11:14:21.425Z,20.00
2022-12-28T11:16:50.917Z,19.98
2022-12-28T11:19:20.414Z,19.98
2022-12-28T11:21:50.533Z,19.99
2022-12-28T11:24:20.059Z,19.98
2022-12-28T11:26:54.713Z,20.01
2022-12-28T11:29:24.215Z,19.98
2022-12-28T11:31:54.996Z,20.01
2022-12-28T11:34:29.049Z,19.88
2022-12-28T11:36:58.638Z,19.92
2022-12-28T11:39:33.168Z,19.98
2022-12-28T11:42:37.107Z,20.02
2022-12-28T11:44:35.457Z,20.07
2022-12-28T11:47:06.047Z,20.09
2022-12-28T11:49:38.488Z,20.13
2022-12-28T11:52:12.698Z,20.16
2022-12-28T11:54:42.286Z,20.19
2022-12-28T11:57:12.438Z,20.22
2022-12-28T11:59:42.180Z,20.24
2022-12-28T12:02:14.369Z,20.28
2022-12-28T12:04:44.746Z,20.31
2022-12-28T12:07:24.722Z,20.41
2022-12-28T12:09:53.457Z,20.41
2022-12-28T12:12:26.607Z,20.43
2022-12-28T12:14:57.446Z,20.45
2022-12-28T12:17:28.183Z,20.46
2022-12-28T12:19:59.138Z,20.47
2022-12-28T12:22:30.107Z,20.47
2022-12-28T12:25:17.448Z,20.49
2022-12-28T12:27:54.646Z,20.49
2022-12-28T12:30:24.357Z,20.58
2022-12-28T12:32:55.227Z,20.66
2022-12-28T12:35:26.267Z,20.62
2022-12-28T12:38:00.450Z,20.63
2022-12-28T12:40:46.480Z,20.61
2022-12-28T12:43:30.327Z,20.60
2022-12-28T12:46:04.415Z,20.61
2022-12-28T12:48:35.719Z,20.60
2022-12-28T12:51:09.843Z,20.62
2022-12-28T12:53:52.829Z,20.62
2022-12-28T12:56:30.871Z,20.61
2022-12-28T12:59:04.583Z,20.63
2022-12-28T13:01:47.823Z,20.62
2022-12-28T13:04:23.583Z,20.62
2022-12-28T13:06:54.936Z,20.64
2022-12-28T13:09:25.156Z,20.64
2022-12-28T13:11:55.051Z,20.62
2022-12-28T13:14:25.796Z,20.63
2022-12-28T13:16:56.809Z,20.64
2022-12-28T13:19:28.084Z,20.62
2022-12-28T13:21:59.326Z,20.62
2022-12-28T13:24:30.066Z,20.66
2022-12-28T13:27:00.217Z,20.65
2022-12-28T13:29:34.559Z,20.66
2022-12-28T13:32:04.132Z,20.66
2022-12-28T13:34:35.418Z,20.66
2022-12-28T13:37:06.118Z,20.66
2022-12-28T13:39:41.808Z,20.64
2022-12-28T13:42:08.151Z,20.62
2022-12-28T13:44:44.806Z,20.61
2022-12-28T13:47:15.667Z,20.59
2022-12-28T13:49:52.706Z,20.57
2022-12-28T13:52:23.618Z,20.56
2022-12-28T13:54:54.253Z,20.54
2022-12-28T13:59:58.366Z,20.54
2022-12-28T14:02:28.705Z,20.54
2022-12-28T14:04:58.251Z,20.52
2022-12-28T14:07:28.323Z,20.53
2022-12-28T14:09:57.786Z,20.53
2022-12-28T14:12:27.458Z,20.53
2022-12-28T14:14:57.067Z,20.53
2022-12-28T14:17:26.384Z,20.56
2022-12-28T14:19:56.238Z,20.56
2022-12-28T14:22:32.730Z,20.53
2022-12-28T14:25:05.075Z,20.54
2022-12-28T14:27:36.681Z,20.53
2022-12-28T14:30:07.307Z,20.51
2022-12-28T14:32:43.077Z,20.52
2022-12-28T14:35:13.309Z,20.52
2022-12-28T14:37:43.288Z,20.55
2022-12-28T14:40:16.999Z,20.54
2022-12-28T14:42:48.964Z,20.52
2022-12-28T14:45:25.812Z,20.51
2022-12-28T14:47:58.706Z,20.53
2022-12-28T14:50:28.933Z,20.52
2022-12-28T14:53:25.926Z,20.50
2022-12-28T14:55:57.950Z,20.50
2022-12-28T14:58:29.003Z,20.50
2022-12-28T15:01:00.014Z,20.50
2022-12-28T15:03:30.108Z,20.52
2022-12-28T15:06:03.660Z,20.52
2022-12-28T15:08:36.168Z,20.54
2022-12-28T15:13:37.665Z,20.55
2022-12-28T15:16:07.997Z,20.52
2022-12-28T15:18:40.775Z,20.54
2022-12-28T15:21:10.575Z,20.53
2022-12-28T15:23:42.690Z,20.53
2022-12-28T15:26:13.218Z,20.56
2022-12-28T15:28:42.807Z,20.55
2022-12-28T15:31:17.595Z,20.50
2022-12-28T15:33:47.505Z,20.52
2022-12-28T15:36:18.466Z,20.48
2022-12-28T15:38:51.074Z,20.51
2022-12-28T15:41:38.025Z,20.49
2022-12-28T15:44:13.041Z,20.46
2022-12-28T15:46:47.500Z,20.46
2022-12-28T15:49:17.274Z,20.49
2022-12-28T15:51:48.362Z,20.51
2022-12-28T15:54:22.325Z,20.53
2022-12-28T15:56:52.777Z,20.53
2022-12-28T15:59:22.225Z,20.53
2022-12-28T16:01:52.222Z,20.52
2022-12-28T16:04:21.529Z,20.54
2022-12-28T16:06:52.003Z,20.53
2022-12-28T16:09:21.816Z,20.51
2022-12-28T16:11:55.055Z,20.49
2022-12-28T16:14:27.219Z,20.57
2022-12-28T16:16:56.815Z,20.56
2022-12-28T16:19:26.347Z,20.56
2022-12-28T16:21:55.655Z,20.58
2022-12-28T16:24:25.070Z,20.63
2022-12-28T16:26:54.717Z,20.64
2022-12-28T16:29:24.405Z,20.69
2022-12-28T16:31:57.823Z,20.67
2022-12-28T16:34:25.596Z,20.69
2022-12-28T16:36:59.460Z,20.64
2022-12-28T16:39:30.051Z,20.62
2022-12-28T16:41:59.494Z,20.61
2022-12-28T16:44:29.208Z,20.62
2022-12-28T16:47:02.673Z,20.65
2022-12-28T16:49:32.172Z,20.70
2022-12-28T16:52:01.856Z,20.73
2022-12-28T16:54:31.626Z,20.78
2022-12-28T16:57:00.987Z,20.80
2022-12-28T16:59:30.271Z,20.83
2022-12-28T17:02:00.069Z,20.87
2022-12-28T17:04:29.721Z,20.88
2022-12-28T17:07:00.729Z,20.92
2022-12-28T17:09:30.094Z,20.96
2022-12-28T17:11:59.440Z,20.99
2022-12-28T17:14:37.306Z,21.03
2022-12-28T17:17:02.076Z,21.07
2022-12-28T17:19:31.805Z,21.09
2022-12-28T17:22:01.293Z,21.12
2022-12-28T17:24:30.916Z,21.13
2022-12-28T17:27:06.795Z,21.17
2022-12-28T17:29:30.914Z,21.19
2022-12-28T17:32:00.678Z,21.23
2022-12-28T17:34:30.182Z,21.25
2022-12-28T17:36:59.894Z,21.24
2022-12-28T17:39:33.180Z,21.26
2022-12-28T17:42:00.278Z,21.28
2022-12-28T17:44:29.564Z,21.29
2022-12-28T17:46:59.056Z,21.31
2022-12-28T17:49:28.467Z,21.32
2022-12-28T17:51:58.066Z,21.31
2022-12-28T17:54:27.687Z,21.31
2022-12-28T17:56:57.136Z,21.32
2022-12-28T17:59:26.545Z,21.31
2022-12-28T18:01:56.137Z,21.33
2022-12-28T18:04:25.823Z,21.35
2022-12-28T18:06:55.225Z,21.35
2022-12-28T18:09:27.949Z,21.35
2022-12-28T18:11:55.239Z,21.35
2022-12-28T18:14:24.813Z,21.38
2022-12-28T18:16:54.430Z,21.37
2022-12-28T18:19:23.802Z,21.38
2022-12-28T18:21:53.128Z,21.38
2022-12-28T18:24:22.855Z,21.38
2022-12-28T18:26:52.178Z,21.37
2022-12-28T18:29:21.397Z,21.38
2022-12-28T18:31:50.842Z,21.37
2022-12-28T18:34:20.151Z,21.39
2022-12-28T18:36:50.702Z,21.40
2022-12-28T18:39:20.323Z,21.35
2022-12-28T18:41:49.691Z,21.35
2022-12-28T18:44:19.157Z,21.36
2022-12-28T18:46:48.689Z,21.39
2022-12-28T18:49:18.012Z,21.39
2022-12-28T18:51:47.315Z,21.39
2022-12-28T18:54:16.888Z,21.39
2022-12-28T18:56:46.257Z,21.40
2022-12-28T18:59:15.664Z,21.39
2022-12-28T19:04:16.239Z,21.42
2022-12-28T19:06:51.098Z,21.41
2022-12-28T19:09:20.608Z,21.42
2022-12-28T19:11:49.877Z,21.42
2022-12-28T19:14:19.393Z,21.43
2022-12-28T19:16:48.857Z,21.45
2022-12-28T19:19:21.885Z,21.45
2022-12-28T19:21:58.218Z,21.46
2022-12-28T19:24:26.353Z,21.47
2022-12-28T19:26:55.539Z,21.50
2022-12-28T19:29:25.714Z,21.50
2022-12-28T19:31:55.650Z,21.52
2022-12-28T19:34:25.308Z,21.55
2022-12-28T19:36:56.370Z,21.54
2022-12-28T19:39:25.873Z,21.55
2022-12-28T19:41:55.231Z,21.55
2022-12-28T19:44:24.451Z,21.57
2022-12-28T19:46:55.156Z,21.56
2022-12-28T19:49:24.631Z,21.58
2022-12-28T19:51:55.555Z,21.60
2022-12-28T19:54:29.408Z,21.60
2022-12-28T19:56:58.345Z,21.60
2022-12-28T19:59:27.499Z,21.62
2022-12-28T20:01:57.027Z,21.63
2022-12-28T20:04:26.481Z,21.62
2022-12-28T20:06:55.799Z,21.64
2022-12-28T20:09:28.010Z,21.65
2022-12-28T20:11:57.569Z,21.65
2022-12-28T20:14:26.710Z,21.67
2022-12-28T20:16:56.271Z,21.66
2022-12-28T20:19:25.781Z,21.67
2022-12-28T20:21:55.311Z,21.67
2022-12-28T20:24:24.971Z,21.70
2022-12-28T20:26:59.698Z,21.69
2022-12-28T20:29:26.041Z,21.70
2022-12-28T20:31:55.731Z,21.73
2022-12-28T20:34:25.347Z,21.71
2022-12-28T20:36:54.903Z,21.72
2022-12-28T20:39:24.447Z,21.74
2022-12-28T20:42:11.639Z,21.76
2022-12-28T20:44:42.101Z,21.75
2022-12-28T20:47:12.279Z,21.75
2022-12-28T20:49:43.218Z,21.77
2022-12-28T20:52:12.532Z,21.78
2022-12-28T20:54:42.050Z,21.79
2022-12-28T20:57:11.758Z,21.80
2022-12-28T20:59:41.989Z,21.79
2022-12-28T21:02:12.249Z,21.80
2022-12-28T21:04:42.022Z,21.82
2022-12-28T21:07:11.688Z,21.83
2022-12-28T21:09:42.121Z,21.87
2022-12-28T21:12:12.098Z,21.85
2022-12-28T21:14:41.786Z,21.87
2022-12-28T21:17:12.110Z,21.89
2022-12-28T21:19:44.940Z,21.88
2022-12-28T21:22:14.260Z,21.89
2022-12-28T21:24:46.575Z,21.88
2022-12-28T21:27:16.306Z,21.90
2022-12-28T21:29:46.439Z,21.94
2022-12-28T21:32:16.181Z,21.94
2022-12-28T21:34:46.821Z,21.95
2022-12-28T21:37:34.123Z,21.94
2022-12-28T21:40:04.161Z,21.93
2022-12-28T21:42:33.737Z,21.95
2022-12-28T21:45:03.142Z,21.95
2022-12-28T21:47:33.266Z,21.96
2022-12-28T21:50:03.648Z,21.98
2022-12-28T21:52:33.445Z,21.98
2022-12-28T21:55:07.321Z,21.98
2022-12-28T21:57:36.681Z,21.99
2022-12-28T22:00:07.923Z,22.00
2022-12-28T22:02:55.040Z,22.03
2022-12-28T22:05:42.978Z,22.03
2022-12-28T22:08:30.315Z,22.05
2022-12-28T22:11:17.627Z,22.05
2022-12-28T22:13:48.354Z,22.04
2022-12-28T22:16:17.993Z,22.08
2022-12-28T22:19:02.313Z,22.08
2022-12-28T22:21:18.400Z,22.12
2022-12-28T22:23:47.984Z,22.12
2022-12-28T22:26:20.356Z,22.08
2022-12-28T22:28:49.810Z,22.10
2022-12-28T22:31:19.754Z,22.08
2022-12-28T22:33:50.448Z,22.12
2022-12-28T22:36:20.850Z,22.11
2022-12-28T22:38:50.529Z,22.14
2022-12-28T22:41:20.076Z,22.16
2022-12-28T22:43:53.010Z,22.12
2022-12-28T22:46:22.748Z,22.14
2022-12-28T22:48:54.434Z,22.14
2022-12-28T22:51:23.973Z,22.13
2022-12-28T22:53:53.609Z,22.17
2022-12-28T22:56:23.644Z,22.14
2022-12-28T22:58:56.544Z,22.11
2022-12-28T23:01:27.559Z,22.11
2022-12-28T23:03:58.903Z,22.14
2022-12-28T23:06:28.175Z,22.14
2022-12-28T23:08:57.915Z,22.17
2022-12-28T23:11:40.750Z,22.13
2022-12-28T23:14:37.285Z,22.13
2022-12-28T23:17:05.716Z,22.16
2022-12-28T23:19:51.713Z,22.18
2022-12-28T23:22:39.422Z,22.19
2022-12-28T23:25:27.237Z,22.12
2022-12-28T23:27:57.190Z,22.17
2022-12-28T23:30:27.162Z,22.17
2022-12-28T23:32:57.098Z,22.10
2022-12-28T23:35:26.774Z,22.13
2022-12-28T23:38:03.780Z,22.13
2022-12-28T23:40:36.287Z,22.12
2022-12-28T23:43:06.086Z,22.15
2022-12-28T23:45:39.327Z,21.90
2022-12-28T23:48:09.030Z,21.87
2022-12-28T23:50:38.339Z,21.88
2022-12-28T23:53:08.216Z,21.94
2022-12-28T23:55:37.778Z,22.01
2022-12-28T23:58:07.286Z,22.10
